createdAt,value
2018-12-21T00:00:25.579Z,97522.87
2018-12-21T00:02:32.254Z,97513.05
2018-12-21T00:04:38.838Z,97517.39
2018-12-21T00:06:45.373Z,97517.88
2018-12-21T00:08:51.862Z,97518.39
2018-12-21T00:10:58.669Z,97525.13
2018-12-21T00:13:05.503Z,97512.38
2018-12-21T00:15:12.181Z,97521.39
2018-12-21T00:17:18.852Z,97520.59
2018-12-21T00:19:25.346Z,97523.75
2018-12-21T00:21:32.676Z,97515.63
2018-12-21T00:23:39.207Z,97509.41
2018-12-21T00:25:46.181Z,97496.22
2018-12-21T00:27:53.301Z,97506.68
2018-12-21T00:30:00.122Z,97505.35
2018-12-21T00:32:11.222Z,97502.83
2018-12-21T00:34:22.380Z,97496.05
2018-12-21T00:36:33.785Z,97499.83
2018-12-21T00:38:44.729Z,97492.71
2018-12-21T00:40:56.011Z,97492.64
2018-12-21T00:43:06.566Z,97493.17
2018-12-21T00:45:18.397Z,97486.65
2018-12-21T00:47:24.902Z,97488.76
2018-12-21T00:49:31.513Z,97491.25
2018-12-21T00:51:38.053Z,97488.50
2018-12-21T00:53:44.604Z,97495.81
2018-12-21T00:55:51.118Z,97491.19
2018-12-21T00:57:57.546Z,97484.41
2018-12-21T01:00:04.139Z,97493.37
2018-12-21T01:02:10.748Z,97493.06
2018-12-21T01:04:17.550Z,97490.64
2018-12-21T01:06:24.188Z,97492.46
2018-12-21T01:08:30.886Z,97486.77
2018-12-21T01:10:37.478Z,97483.78
2018-12-21T01:12:43.934Z,97481.61
2018-12-21T01:14:50.862Z,97483.03
2018-12-21T01:16:57.529Z,97482.67
2018-12-21T01:19:04.510Z,97483.65
2018-12-21T01:21:11.787Z,97474.36
2018-12-21T01:23:18.278Z,97425.30
2018-12-21T01:25:24.991Z,97482.45
2018-12-21T01:27:32.148Z,97481.95
2018-12-21T01:29:38.958Z,97481.09
2018-12-21T01:31:45.590Z,97481.64
2018-12-21T01:33:52.203Z,97474.59
2018-12-21T01:35:58.870Z,97484.70
2018-12-21T01:38:05.722Z,97482.69
2018-12-21T01:40:12.451Z,97480.45
2018-12-21T01:42:19.001Z,97477.35
2018-12-21T01:44:25.528Z,97485.31
2018-12-21T01:46:32.193Z,97480.59
2018-12-21T01:48:38.839Z,97479.95
2018-12-21T01:50:45.416Z,97476.50
2018-12-21T01:52:52.023Z,97472.33
2018-12-21T01:54:58.903Z,97467.12
2018-12-21T01:57:05.466Z,97466.67
2018-12-21T01:59:12.281Z,97467.52
2018-12-21T02:01:19.179Z,97458.27
2018-12-21T02:03:25.947Z,97464.75
2018-12-21T02:05:32.684Z,97462.51
2018-12-21T02:07:39.283Z,97453.66
2018-12-21T02:09:46.148Z,97459.00
2018-12-21T02:11:53.087Z,97452.84
2018-12-21T02:13:59.678Z,97453.70
2018-12-21T02:16:06.324Z,97453.74
2018-12-21T02:18:12.932Z,97460.59
2018-12-21T02:20:19.671Z,97459.97
2018-12-21T02:22:26.946Z,97456.47
2018-12-21T02:24:33.801Z,97458.89
2018-12-21T02:26:41.182Z,97449.95
2018-12-21T02:28:47.947Z,97450.22
2018-12-21T02:30:55.210Z,97446.05
2018-12-21T02:33:01.935Z,97451.50
2018-12-21T02:35:08.619Z,97445.16
2018-12-21T02:37:15.939Z,97443.68
2018-12-21T02:39:22.740Z,97445.78
2018-12-21T02:41:29.401Z,97434.27
2018-12-21T02:43:35.779Z,97422.09
2018-12-21T02:45:42.378Z,97423.95
2018-12-21T02:47:49.218Z,97420.13
2018-12-21T02:49:55.997Z,97419.89
2018-12-21T02:52:05.745Z,97416.74
2018-12-21T02:54:11.451Z,97416.98
2018-12-21T02:56:18.147Z,97414.79
2018-12-21T02:58:24.870Z,97416.68
2018-12-21T03:00:31.608Z,97419.89
2018-12-21T03:02:38.196Z,97426.09
2018-12-21T03:04:44.750Z,97429.99
2018-12-21T03:06:52.163Z,97425.35
2018-12-21T03:08:59.105Z,97428.27
2018-12-21T03:11:06.100Z,97425.40
2018-12-21T03:13:13.199Z,97424.58
2018-12-21T03:15:19.872Z,97424.02
2018-12-21T03:17:26.571Z,97431.67
2018-12-21T03:19:33.301Z,97428.64
2018-12-21T03:21:40.252Z,97429.27
2018-12-21T03:26:00.045Z,97422.59
2018-12-21T03:30:45.593Z,97409.66
2018-12-21T03:33:06.550Z,97410.23
2018-12-21T03:35:20.616Z,97405.98
2018-12-21T03:37:27.665Z,97404.84
2018-12-21T03:39:49.728Z,97400.15
2018-12-21T03:41:58.214Z,97415.00
2018-12-21T03:44:10.849Z,97412.83
2018-12-21T03:46:21.174Z,97414.19
2018-12-21T03:48:29.952Z,97415.48
2018-12-21T03:50:40.016Z,97420.36
2018-12-21T03:52:53.130Z,97417.42
2018-12-21T03:55:00.645Z,97421.89
2018-12-21T03:57:07.550Z,97417.05
2018-12-21T03:59:14.374Z,97417.88
2018-12-21T04:01:21.442Z,97417.17
2018-12-21T04:03:28.025Z,97413.88
2018-12-21T04:05:34.566Z,97409.83
2018-12-21T04:07:40.975Z,97357.98
2018-12-21T04:09:47.507Z,97416.97
2018-12-21T04:11:54.205Z,97414.03
2018-12-21T04:14:00.695Z,97408.27
2018-12-21T04:16:07.403Z,97410.20
2018-12-21T04:18:14.386Z,97402.93
2018-12-21T04:20:21.220Z,97402.16
2018-12-21T04:22:33.958Z,97402.67
2018-12-21T04:24:36.726Z,97409.72
2018-12-21T04:26:43.309Z,97404.95
2018-12-21T04:28:49.873Z,97407.50
2018-12-21T04:30:57.482Z,97409.61
2018-12-21T04:33:04.719Z,97409.75
2018-12-21T04:35:11.257Z,97414.48
2018-12-21T04:37:17.672Z,97404.00
2018-12-21T04:39:24.533Z,97400.15
2018-12-21T04:41:31.261Z,97399.44
2018-12-21T04:43:37.848Z,97403.22
2018-12-21T04:45:44.712Z,97394.31
2018-12-21T04:47:51.881Z,97394.77
2018-12-21T04:49:58.654Z,97393.37
2018-12-21T04:52:05.294Z,97402.63
2018-12-21T04:54:11.959Z,97399.36
2018-12-21T04:56:18.816Z,97401.33
2018-12-21T04:58:25.988Z,97390.66
2018-12-21T05:00:32.604Z,97382.47
2018-12-21T05:02:39.279Z,97380.33
2018-12-21T05:04:46.109Z,97380.59
2018-12-21T05:06:53.243Z,97375.16
2018-12-21T05:09:00.000Z,97374.56
2018-12-21T05:11:06.738Z,97364.87
2018-12-21T05:13:13.452Z,97365.97
2018-12-21T05:15:19.759Z,97364.09
2018-12-21T05:17:26.396Z,97358.68
2018-12-21T05:19:33.116Z,97360.27
2018-12-21T05:21:39.580Z,97355.84
2018-12-21T05:23:46.337Z,97355.42
2018-12-21T05:25:53.083Z,97357.13
2018-12-21T05:27:59.688Z,97355.52
2018-12-21T05:30:06.284Z,97350.55
2018-12-21T05:32:13.206Z,97349.93
2018-12-21T05:34:19.680Z,97352.99
2018-12-21T05:36:26.247Z,97359.75
2018-12-21T05:38:32.670Z,97347.87
2018-12-21T05:40:39.244Z,97349.42
2018-12-21T05:42:45.989Z,97353.31
2018-12-21T05:44:52.736Z,97342.87
2018-12-21T05:47:00.402Z,97346.79
2018-12-21T05:49:07.516Z,97343.55
2018-12-21T05:51:14.222Z,97344.09
2018-12-21T05:53:21.162Z,97343.16
2018-12-21T05:55:27.865Z,97342.09
2018-12-21T05:57:34.691Z,97340.97
2018-12-21T05:59:41.431Z,97348.42
2018-12-21T06:01:47.941Z,97336.36
2018-12-21T06:03:54.511Z,97337.70
2018-12-21T06:06:01.128Z,97326.00
2018-12-21T06:08:07.655Z,97331.37
2018-12-21T06:10:14.411Z,97332.72
2018-12-21T06:12:20.915Z,97328.36
2018-12-21T06:14:27.585Z,97334.61
2018-12-21T06:16:34.454Z,97331.37
2018-12-21T06:18:41.514Z,97328.89
2018-12-21T06:20:48.359Z,97328.39
2018-12-21T06:22:55.123Z,97324.64
2018-12-21T06:25:01.791Z,97331.06
2018-12-21T06:27:08.431Z,97331.09
2018-12-21T06:29:15.200Z,97323.66
2018-12-21T06:31:21.849Z,97321.63
2018-12-21T06:33:28.427Z,97321.69
2018-12-21T06:35:34.989Z,97316.53
2018-12-21T06:37:41.515Z,97316.40
2018-12-21T06:39:48.331Z,97308.32
2018-12-21T06:41:54.970Z,97321.89
2018-12-21T06:44:01.450Z,97325.37
2018-12-21T06:46:14.103Z,97316.48
2018-12-21T06:48:17.080Z,97321.66
2018-12-21T06:50:23.822Z,97318.31
2018-12-21T06:52:30.488Z,97310.58
2018-12-21T06:54:37.062Z,97316.76
2018-12-21T06:56:44.359Z,97321.50
2018-12-21T06:58:51.096Z,97308.67
2018-12-21T07:00:57.771Z,97312.00
2018-12-21T07:03:04.269Z,97315.38
2018-12-21T07:05:10.820Z,97309.11
2018-12-21T07:07:17.350Z,97309.17
2018-12-21T07:09:23.838Z,97312.67
2018-12-21T07:11:30.698Z,97315.55
2018-12-21T07:13:37.328Z,97319.06
2018-12-21T07:15:43.910Z,97319.84
2018-12-21T07:17:50.646Z,97315.94
2018-12-21T07:19:57.380Z,97324.15
2018-12-21T07:22:04.354Z,97316.58
2018-12-21T07:24:17.142Z,97322.42
2018-12-21T07:26:24.050Z,97325.23
2018-12-21T07:28:30.718Z,97328.31
2018-12-21T07:30:37.338Z,97329.80
2018-12-21T07:32:44.226Z,97332.91
2018-12-21T07:34:50.783Z,97329.16
2018-12-21T07:36:57.542Z,97337.88
2018-12-21T07:39:04.945Z,97339.73
2018-12-21T07:41:11.610Z,97332.91
2018-12-21T07:43:18.177Z,97340.49
2018-12-21T07:45:24.946Z,97343.73
2018-12-21T07:47:32.233Z,97346.63
2018-12-21T07:49:38.976Z,97350.33
2018-12-21T07:51:45.567Z,97342.75
2018-12-21T07:53:52.137Z,97347.18
2018-12-21T07:55:59.006Z,97357.63
2018-12-21T07:58:05.578Z,97354.41
2018-12-21T08:00:13.997Z,97343.56
2018-12-21T08:02:20.670Z,97350.52
2018-12-21T08:04:27.463Z,97349.14
2018-12-21T08:06:34.267Z,97359.36
2018-12-21T08:08:40.879Z,97360.97
2018-12-21T08:10:47.691Z,97366.89
2018-12-21T08:12:54.134Z,97368.80
2018-12-21T08:15:01.022Z,97362.84
2018-12-21T08:17:07.642Z,97362.73
2018-12-21T08:19:14.216Z,97361.51
2018-12-21T08:21:20.985Z,97357.48
2018-12-21T08:23:28.441Z,97352.45
2018-12-21T08:25:35.203Z,97356.16
2018-12-21T08:27:42.066Z,97364.69
2018-12-21T08:29:48.660Z,97365.88
2018-12-21T08:31:55.309Z,97358.72
2018-12-21T08:34:02.024Z,97365.59
2018-12-21T08:36:08.992Z,97362.41
2018-12-21T08:38:15.854Z,97358.09
2018-12-21T08:40:22.408Z,97368.58
2018-12-21T08:42:29.009Z,97373.78
2018-12-21T08:44:35.716Z,97379.66
2018-12-21T08:46:42.266Z,97379.01
2018-12-21T08:48:48.813Z,97386.84
2018-12-21T08:50:55.273Z,97394.94
2018-12-21T08:53:01.936Z,97395.48
2018-12-21T08:55:08.829Z,97386.09
2018-12-21T08:57:15.370Z,97387.70
2018-12-21T08:59:22.517Z,97386.02
2018-12-21T09:01:29.282Z,97389.27
2018-12-21T09:03:36.085Z,97390.53
2018-12-21T09:05:42.878Z,97391.81
2018-12-21T09:07:49.976Z,97385.64
2018-12-21T09:09:56.660Z,97389.34
2018-12-21T09:12:03.403Z,97383.34
2018-12-21T09:14:10.185Z,97385.23
2018-12-21T09:16:16.699Z,97393.52
2018-12-21T09:18:23.265Z,97392.16
2018-12-21T09:20:30.089Z,97396.92
2018-12-21T09:22:36.560Z,97399.06
2018-12-21T09:24:43.393Z,97391.66
2018-12-21T09:26:49.917Z,97392.95
2018-12-21T09:28:56.502Z,97398.49
2018-12-21T09:31:03.316Z,97400.52
2018-12-21T09:33:09.815Z,97396.60
2018-12-21T09:35:16.764Z,97401.87
2018-12-21T09:37:23.557Z,97394.42
2018-12-21T09:39:30.103Z,97390.22
2018-12-21T09:41:36.769Z,97394.37
2018-12-21T09:43:43.555Z,97392.65
2018-12-21T09:45:50.066Z,97388.29
2018-12-21T09:47:56.313Z,97389.66
2018-12-21T09:50:02.927Z,97389.91
2018-12-21T09:52:09.441Z,97391.19
2018-12-21T09:54:15.957Z,97400.08
2018-12-21T09:56:22.849Z,97399.97
2018-12-21T09:58:29.283Z,97402.11
2018-12-21T10:00:36.075Z,97395.43
2018-12-21T10:02:43.009Z,97394.05
2018-12-21T10:04:49.682Z,97398.34
2018-12-21T10:06:56.202Z,97388.80
2018-12-21T10:09:03.270Z,97385.73
2018-12-21T10:11:09.918Z,97389.88
2018-12-21T10:13:16.470Z,97389.52
2018-12-21T10:15:23.744Z,97381.40
2018-12-21T10:17:30.390Z,97385.94
2018-12-21T10:19:36.771Z,97388.64
2018-12-21T10:21:43.335Z,97389.66
2018-12-21T10:23:49.954Z,97390.17
2018-12-21T10:25:56.776Z,97401.15
2018-12-21T10:28:03.311Z,97395.52
2018-12-21T10:30:11.805Z,97400.19
2018-12-21T10:32:18.392Z,97393.83
2018-12-21T10:34:24.907Z,97395.32
2018-12-21T10:36:31.866Z,97390.38
2018-12-21T10:38:38.565Z,97399.08
2018-12-21T10:40:45.402Z,97401.66
2018-12-21T10:42:51.977Z,97396.68
2018-12-21T10:44:58.506Z,97397.65
2018-12-21T10:47:05.333Z,97402.91
2018-12-21T10:49:11.860Z,97398.15
2018-12-21T10:51:18.264Z,97396.80
2018-12-21T10:53:25.111Z,97397.48
2018-12-21T10:55:31.707Z,97397.28
2018-12-21T10:57:38.088Z,97402.39
2018-12-21T10:59:44.804Z,97399.05
2018-12-21T11:01:51.482Z,97405.80
2018-12-21T11:03:58.209Z,97407.94
2018-12-21T11:06:04.658Z,97404.57
2018-12-21T11:08:11.125Z,97411.20
2018-12-21T11:10:17.575Z,97409.45
2018-12-21T11:12:24.119Z,97411.23
2018-12-21T11:14:30.902Z,97409.77
2018-12-21T11:16:37.535Z,97408.36
2018-12-21T11:18:44.343Z,97406.75
2018-12-21T11:20:50.858Z,97407.20
2018-12-21T11:22:57.674Z,97401.11
2018-12-21T11:25:04.350Z,97409.44
2018-12-21T11:27:11.076Z,97407.99
2018-12-21T11:29:18.004Z,97415.47
2018-12-21T11:31:24.715Z,97418.45
2018-12-21T11:33:31.411Z,97421.09
2018-12-21T11:35:38.128Z,97421.74
2018-12-21T11:37:44.578Z,97421.84
2018-12-21T11:39:50.922Z,97428.97
2018-12-21T11:41:57.429Z,97433.63
2018-12-21T11:44:03.871Z,97418.39
2018-12-21T11:46:10.549Z,97420.39
2018-12-21T11:48:17.258Z,97418.50
2018-12-21T11:50:23.919Z,97424.09
2018-12-21T11:52:30.538Z,97423.75
2018-12-21T11:54:44.162Z,97420.92
2018-12-21T11:56:45.906Z,97430.80
2018-12-21T11:58:52.699Z,97428.27
2018-12-21T12:00:59.180Z,97422.97
2018-12-21T12:03:05.902Z,97425.77
2018-12-21T12:05:12.676Z,97424.52
2018-12-21T12:07:19.327Z,97435.72
2018-12-21T12:09:25.795Z,97433.03
2018-12-21T12:11:32.422Z,97429.38
2018-12-21T12:13:39.080Z,97441.75
2018-12-21T12:15:45.682Z,97428.00
2018-12-21T12:17:52.409Z,97436.05
2018-12-21T12:19:58.994Z,97435.92
2018-12-21T12:22:05.634Z,97451.20
2018-12-21T12:24:12.298Z,97450.28
2018-12-21T12:26:18.831Z,97443.41
2018-12-21T12:28:25.565Z,97449.52
2018-12-21T12:30:32.120Z,97451.10
2018-12-21T12:32:38.489Z,97451.27
2018-12-21T12:34:45.331Z,97458.73
2018-12-21T12:39:13.250Z,97467.45
2018-12-21T12:41:20.564Z,97463.95
2018-12-21T12:43:27.335Z,97463.33
2018-12-21T12:45:33.925Z,97468.88
2018-12-21T12:47:40.213Z,97476.04
2018-12-21T12:49:46.898Z,97469.94
2018-12-21T12:51:53.513Z,97469.77
2018-12-21T12:54:00.036Z,97466.66
2018-12-21T12:56:06.598Z,97466.98
2018-12-21T12:58:14.513Z,97470.87
2018-12-21T13:00:21.466Z,97469.81
2018-12-21T13:02:28.066Z,97466.90
2018-12-21T13:04:34.587Z,97479.42
2018-12-21T13:06:41.428Z,97478.09
2018-12-21T13:08:47.979Z,97474.09
2018-12-21T13:10:54.465Z,97472.22
2018-12-21T13:13:01.905Z,97473.95
2018-12-21T13:15:10.858Z,97478.05
2018-12-21T13:17:17.767Z,97475.07
2018-12-21T13:19:24.598Z,97482.20
2018-12-21T13:21:31.206Z,97482.62
2018-12-21T13:23:37.648Z,97480.33
2018-12-21T13:25:44.420Z,97479.63
2018-12-21T13:27:51.114Z,97485.77
2018-12-21T13:29:57.760Z,97491.91
2018-12-21T13:32:04.252Z,97497.50
2018-12-21T13:34:10.713Z,97498.44
2018-12-21T13:36:17.366Z,97498.61
2018-12-21T13:38:24.241Z,97502.59
2018-12-21T13:40:30.777Z,97502.43
2018-12-21T13:42:37.266Z,97503.88
2018-12-21T13:44:43.949Z,97508.68
2018-12-21T13:46:50.640Z,97497.96
2018-12-21T13:48:57.327Z,97501.66
2018-12-21T13:51:04.085Z,97508.92
2018-12-21T13:53:10.858Z,97503.42
2018-12-21T13:55:20.466Z,97505.11
2018-12-21T13:57:26.153Z,97505.94
2018-12-21T13:59:32.910Z,97507.44
2018-12-21T14:01:39.667Z,97512.20
2018-12-21T14:03:46.487Z,97518.00
2018-12-21T14:05:53.236Z,97522.27
2018-12-21T14:07:59.760Z,97525.41
2018-12-21T14:10:07.895Z,97520.98
2018-12-21T14:12:14.452Z,97528.28
2018-12-21T14:14:21.241Z,97526.86
2018-12-21T14:16:28.206Z,97528.64
2018-12-21T14:18:35.270Z,97528.03
2018-12-21T14:20:42.069Z,97529.13
2018-12-21T14:22:48.804Z,97532.28
2018-12-21T14:24:55.960Z,97528.25
2018-12-21T14:27:02.607Z,97524.09
2018-12-21T14:29:09.298Z,97526.35
2018-12-21T14:31:16.394Z,97521.64
2018-12-21T14:33:23.202Z,97527.70
2018-12-21T14:35:29.379Z,97519.45
2018-12-21T14:37:35.814Z,97516.92
2018-12-21T14:39:42.363Z,97525.78
2018-12-21T14:41:49.153Z,97516.20
2018-12-21T14:43:55.900Z,97522.89
2018-12-21T14:46:02.724Z,97478.85
2018-12-21T14:48:09.580Z,97524.23
2018-12-21T14:50:16.558Z,97527.55
2018-12-21T14:52:23.103Z,97529.70
2018-12-21T14:54:29.746Z,97524.76
2018-12-21T14:56:36.410Z,97530.41
2018-12-21T14:58:43.015Z,97524.59
2018-12-21T15:00:50.316Z,97527.23
2018-12-21T15:02:57.173Z,97523.14
2018-12-21T15:05:04.289Z,97536.42
2018-12-21T15:07:11.257Z,97531.16
2018-12-21T15:09:18.485Z,97542.27
2018-12-21T15:11:25.386Z,97530.53
2018-12-21T15:13:32.189Z,97539.53
2018-12-21T15:15:39.105Z,97539.66
2018-12-21T15:17:45.646Z,97543.41
2018-12-21T15:19:52.334Z,97548.08
2018-12-21T15:21:58.987Z,97544.45
2018-12-21T15:24:05.816Z,97553.50
2018-12-21T15:26:12.911Z,97550.72
2018-12-21T15:28:19.622Z,97556.66
2018-12-21T15:30:26.183Z,97555.74
2018-12-21T15:32:32.990Z,97554.95
2018-12-21T15:34:39.578Z,97552.05
2018-12-21T15:36:46.650Z,97553.45
2018-12-21T15:38:54.082Z,97552.27
2018-12-21T15:41:01.071Z,97551.06
2018-12-21T15:43:08.058Z,97559.92
2018-12-21T15:45:14.980Z,97562.52
2018-12-21T15:47:22.113Z,97562.10
2018-12-21T15:49:28.844Z,97565.23
2018-12-21T15:51:35.761Z,97562.87
2018-12-21T15:53:41.939Z,97560.84
2018-12-21T15:55:54.796Z,97561.78
2018-12-21T15:57:57.299Z,97569.05
2018-12-21T16:00:04.060Z,97574.12
2018-12-21T16:02:10.797Z,97568.41
2018-12-21T16:04:17.666Z,97575.09
2018-12-21T16:06:24.995Z,97574.75
2018-12-21T16:08:32.074Z,97570.37
2018-12-21T16:10:38.906Z,97576.28
2018-12-21T16:12:45.931Z,97570.72
2018-12-21T16:14:52.849Z,97572.05
2018-12-21T16:16:59.724Z,97574.69
2018-12-21T16:19:06.373Z,97578.41
2018-12-21T16:21:12.884Z,97570.71
2018-12-21T16:23:19.936Z,97578.02
2018-12-21T16:25:27.234Z,97576.28
2018-12-21T16:27:34.151Z,97579.19
2018-12-21T16:29:41.191Z,97577.48
2018-12-21T16:31:48.761Z,97583.43
2018-12-21T16:33:56.219Z,97583.23
2018-12-21T16:36:04.202Z,97574.80
2018-12-21T16:38:11.447Z,97572.01
2018-12-21T16:40:18.192Z,97580.30
2018-12-21T16:42:26.968Z,97574.80
2018-12-21T16:44:33.588Z,97577.55
2018-12-21T16:46:40.848Z,97576.64
2018-12-21T16:48:47.882Z,97578.25
2018-12-21T16:50:55.212Z,97578.45
2018-12-21T16:53:01.943Z,97576.81
2018-12-21T16:55:09.893Z,97581.40
2018-12-21T16:57:17.207Z,97577.19
2018-12-21T16:59:24.372Z,97568.13
2018-12-21T17:01:31.684Z,97570.80
2018-12-21T17:03:38.243Z,97573.14
2018-12-21T17:05:44.726Z,97568.86
2018-12-21T17:07:51.737Z,97577.67
2018-12-21T17:09:58.473Z,97581.89
2018-12-21T17:12:05.237Z,97578.31
2018-12-21T17:14:12.148Z,97570.47
2018-12-21T17:16:18.892Z,97570.39
2018-12-21T17:18:27.455Z,97575.30
2018-12-21T17:20:34.205Z,97568.00
2018-12-21T17:22:41.048Z,97568.70
2018-12-21T17:24:47.813Z,97565.47
2018-12-21T17:26:55.177Z,97564.09
2018-12-21T17:29:01.968Z,97561.39
2018-12-21T17:31:08.882Z,97566.49
2018-12-21T17:33:16.077Z,97568.25
2018-12-21T17:35:23.066Z,97566.91
2018-12-21T17:37:29.871Z,97566.49
2018-12-21T17:39:36.639Z,97566.17
2018-12-21T17:41:43.305Z,97560.73
2018-12-21T17:43:49.958Z,97556.33
2018-12-21T17:45:56.724Z,97555.77
2018-12-21T17:48:03.914Z,97554.19
2018-12-21T17:50:12.206Z,97545.20
2018-12-21T17:52:18.942Z,97550.05
2018-12-21T17:54:25.989Z,97545.72
2018-12-21T17:56:34.603Z,97540.75
2018-12-21T17:58:41.670Z,97540.24
2018-12-21T18:00:48.265Z,97534.58
2018-12-21T18:02:57.656Z,97531.84
2018-12-21T18:05:04.555Z,97532.61
2018-12-21T18:07:11.440Z,97534.31
2018-12-21T18:09:18.144Z,97532.68
2018-12-21T18:11:25.089Z,97528.88
2018-12-21T18:13:31.700Z,97550.09
2018-12-21T18:15:38.722Z,97529.44
2018-12-21T18:17:45.473Z,97533.15
2018-12-21T18:19:52.240Z,97535.23
2018-12-21T18:22:07.435Z,97524.30
2018-12-21T18:24:14.168Z,97527.22
2018-12-21T18:26:20.895Z,97530.92
2018-12-21T18:28:29.958Z,97530.53
2018-12-21T18:30:43.783Z,97522.52
2018-12-21T18:32:50.476Z,97528.02
2018-12-21T18:34:59.570Z,97527.86
2018-12-21T18:37:08.538Z,97528.30
2018-12-21T18:39:15.151Z,97525.67
2018-12-21T18:41:22.072Z,97533.06
2018-12-21T18:43:29.205Z,97526.75
2018-12-21T18:45:36.116Z,97526.77
2018-12-21T18:47:42.586Z,97530.81
2018-12-21T18:49:49.274Z,97530.52
2018-12-21T18:51:56.033Z,97525.05
2018-12-21T18:54:12.528Z,97525.58
2018-12-21T18:56:23.318Z,97523.22
2018-12-21T18:58:30.380Z,97528.83
2018-12-21T19:00:36.921Z,97528.84
2018-12-21T19:02:43.458Z,97520.62
2018-12-21T19:04:50.111Z,97522.24
2018-12-21T19:06:56.854Z,97526.06
2018-12-21T19:09:03.498Z,97522.36
2018-12-21T19:11:10.264Z,97522.44
2018-12-21T19:13:17.017Z,97526.84
2018-12-21T19:15:23.884Z,97528.05
2018-12-21T19:17:54.644Z,97533.27
2018-12-21T19:20:01.404Z,97527.28
2018-12-21T19:22:08.127Z,97527.01
2018-12-21T19:24:15.128Z,97536.45
2018-12-21T19:26:21.872Z,97531.00
2018-12-21T19:28:29.313Z,97536.07
2018-12-21T19:30:36.168Z,97527.59
2018-12-21T19:32:44.414Z,97527.84
2018-12-21T19:34:50.992Z,97531.09
2018-12-21T19:36:57.749Z,97533.98
2018-12-21T19:39:05.237Z,97535.19
2018-12-21T19:41:12.235Z,97538.70
2018-12-21T19:43:27.985Z,97532.92
2018-12-21T19:45:28.001Z,97539.16
2018-12-21T19:47:34.645Z,97532.64
2018-12-21T19:49:41.570Z,97544.43
2018-12-21T19:51:48.218Z,97546.34
2018-12-21T19:53:54.733Z,97545.37
2018-12-21T19:57:26.650Z,97544.39
2018-12-21T19:59:33.337Z,97552.88
2018-12-21T20:01:39.871Z,97547.27
2018-12-21T20:03:46.394Z,97558.73
2018-12-21T20:05:53.237Z,97560.53
2018-12-21T20:08:00.596Z,97563.81
2018-12-21T20:10:08.108Z,97562.46
2018-12-21T20:12:14.798Z,97561.72
2018-12-21T20:14:21.757Z,97567.86
2018-12-21T20:16:28.716Z,97567.84
2018-12-21T20:18:35.490Z,97567.52
2018-12-21T20:20:42.286Z,97579.13
2018-12-21T20:22:48.958Z,97583.59
2018-12-21T20:24:56.431Z,97589.55
2018-12-21T20:27:15.172Z,97602.72
2018-12-21T20:29:25.889Z,97599.95
2018-12-21T20:31:32.934Z,97603.20
2018-12-21T20:33:41.210Z,97609.02
2018-12-21T20:35:48.176Z,97603.13
2018-12-21T20:37:55.019Z,97606.56
2018-12-21T20:40:02.033Z,97612.12
2018-12-21T20:42:17.278Z,97606.52
2018-12-21T20:44:23.951Z,97608.52
2018-12-21T20:46:32.597Z,97625.22
2018-12-21T20:48:39.608Z,97623.19
2018-12-21T20:50:46.326Z,97622.63
2018-12-21T20:52:53.243Z,97624.52
2018-12-21T20:55:02.207Z,97627.21
2018-12-21T20:57:11.001Z,97629.31
2018-12-21T20:59:21.389Z,97629.85
2018-12-21T21:01:28.253Z,97637.38
2018-12-21T21:03:35.079Z,97637.02
2018-12-21T21:05:44.007Z,97637.23
2018-12-21T21:07:50.935Z,97630.42
2018-12-21T21:10:13.005Z,97634.74
2018-12-21T21:12:23.198Z,97638.31
2018-12-21T21:14:38.874Z,97640.26
2018-12-21T21:16:45.934Z,97640.39
2018-12-21T21:18:53.132Z,97642.48
2018-12-21T21:21:10.304Z,97640.45
2018-12-21T21:23:30.582Z,97637.14
2018-12-21T21:25:46.393Z,97652.22
2018-12-21T21:27:53.032Z,97657.69
2018-12-21T21:30:05.344Z,97666.67
2018-12-21T21:32:18.969Z,97670.20
2018-12-21T21:34:35.374Z,97682.95
2018-12-21T21:36:42.606Z,97685.36
2018-12-21T21:38:49.274Z,97688.55
2018-12-21T21:40:56.138Z,97688.02
2018-12-21T21:43:10.425Z,97683.50
2018-12-21T21:48:09.147Z,97663.22
2018-12-21T21:50:16.032Z,97664.17
2018-12-21T21:52:22.597Z,97623.75
2018-12-21T21:54:29.384Z,97666.79
2018-12-21T21:56:36.154Z,97675.38
2018-12-21T21:58:45.030Z,97671.84
2018-12-21T22:01:00.892Z,97680.27
2018-12-21T22:03:21.409Z,97683.40
2018-12-21T22:05:44.300Z,97685.18
2018-12-21T22:07:51.163Z,97684.22
2018-12-21T22:09:58.050Z,97685.66
2018-12-21T22:12:04.506Z,97695.41
2018-12-21T22:14:11.077Z,97695.12
2018-12-21T22:16:17.927Z,97694.52
2018-12-21T22:18:24.615Z,97699.37
2018-12-21T22:20:31.171Z,97687.99
2018-12-21T22:22:37.733Z,97693.80
2018-12-21T22:24:44.327Z,97705.46
2018-12-21T22:26:51.054Z,97703.16
2018-12-21T22:28:57.766Z,97702.13
2018-12-21T22:31:04.330Z,97698.59
2018-12-21T22:33:17.688Z,97706.99
2018-12-21T22:35:34.701Z,97721.48
2018-12-21T22:37:41.381Z,97726.39
2018-12-21T22:42:45.174Z,97721.67
2018-12-21T22:45:03.022Z,97731.41
2018-12-21T22:49:44.194Z,97730.50
2018-12-21T22:51:50.990Z,97728.23
2018-12-21T22:53:57.775Z,97742.11
2018-12-21T22:56:04.991Z,97738.25
2018-12-21T22:58:11.548Z,97738.31
2018-12-21T23:00:29.718Z,97737.61
2018-12-21T23:02:45.522Z,97740.72
2018-12-21T23:05:06.177Z,97743.61
2018-12-21T23:07:20.994Z,97743.49
2018-12-21T23:09:27.835Z,97758.66
2018-12-21T23:11:34.861Z,97749.27
2018-12-21T23:13:41.779Z,97748.91
2018-12-21T23:15:48.883Z,97762.70
2018-12-21T23:17:55.628Z,97767.25
2018-12-21T23:20:02.255Z,97776.73
2018-12-21T23:22:09.074Z,97778.09
2018-12-21T23:24:17.562Z,97783.87
2018-12-21T23:26:26.511Z,97798.22
2018-12-21T23:28:40.893Z,97797.95
2018-12-21T23:30:52.684Z,97802.07
2018-12-21T23:33:10.970Z,97800.69
2018-12-21T23:35:34.263Z,97806.63
2018-12-21T23:37:40.969Z,97794.23
2018-12-21T23:42:29.244Z,97802.98
2018-12-21T23:44:46.385Z,97811.03
2018-12-21T23:46:53.719Z,97807.90
2018-12-21T23:49:00.454Z,97812.05
2018-12-21T23:51:13.089Z,97812.22
2018-12-21T23:53:25.365Z,97813.87
2018-12-21T23:55:31.964Z,97823.90
2018-12-21T23:57:38.457Z,97827.00
2018-12-21T23:59:45.082Z,97828.20
